Time;durP1;ratioP1;P1;durP2;ratioP2;P2;SDS_P1;SDS_P2;PMS_P1;PMS_P2;Temp;Humidity;BMP_temperature;BMP_pressure;BME280_temperature;BME280_humidity;BME280_pressure;Samples;Min_cycle;Max_cycle;Signal;HPM_P1;HPM_P2
2022/01/10 00:01:09;;;;;;;9.07;6.07;;;;;;;3.28;79.97;96001.13;5100349;28;20084;-91
2022/01/10 00:03:37;;;;;;;6.93;5.50;;;;;;;3.29;80.21;96002.72;5100368;28;20040;-91
2022/01/10 00:06:05;;;;;;;8.68;5.95;;;;;;;3.29;80.47;96005.28;5099620;28;20391;-90
2022/01/10 00:08:34;;;;;;;8.38;6.50;;;;;;;3.30;80.48;96006.09;5101393;28;20043;-92
2022/01/10 00:11:03;;;;;;;12.13;6.40;;;;;;;3.30;80.44;96012.09;5100142;28;20052;-88
2022/01/10 00:13:31;;;;;;;7.88;5.55;;;;;;;3.32;80.96;96008.53;5099547;28;20051;-89
2022/01/10 00:15:59;;;;;;;9.52;5.60;;;;;;;3.31;79.71;96018.03;5099274;28;20056;-90
2022/01/10 00:18:27;;;;;;;11.55;6.00;;;;;;;3.25;79.36;96005.75;5099303;28;20039;-89
2022/01/10 00:20:55;;;;;;;9.10;6.10;;;;;;;3.19;79.08;96022.66;5099373;28;20489;-89
2022/01/10 00:23:22;;;;;;;5.88;4.88;;;;;;;3.17;79.66;96024.56;5098524;28;20062;-88
2022/01/10 00:25:50;;;;;;;5.78;4.82;;;;;;;3.22;80.34;96026.69;5097256;28;20056;-88
2022/01/10 00:28:22;;;;;;;6.45;5.28;;;;;;;3.25;80.85;96023.78;5097948;28;20071;-91
2022/01/10 00:30:50;;;;;;;7.43;5.53;;;;;;;3.29;80.84;96025.91;5097398;28;20083;-90
2022/01/10 00:33:18;;;;;;;9.30;6.32;;;;;;;3.33;81.10;96025.63;5098653;28;20293;-86
2022/01/10 00:35:47;;;;;;;7.80;6.00;;;;;;;3.36;80.62;96020.97;5098075;28;20044;-84
2022/01/10 00:38:15;;;;;;;13.65;6.78;;;;;;;3.35;79.75;96034.03;5098216;28;20086;-86
2022/01/10 00:40:43;;;;;;;7.93;6.18;;;;;;;3.28;79.91;96039.78;5098423;28;20071;-86
2022/01/10 00:43:17;;;;;;;10.10;6.28;;;;;;;3.28;80.87;96039.78;5097906;28;20072;-89
2022/01/10 00:45:47;;;;;;;10.32;7.07;;;;;;;3.29;81.24;96038.81;5097586;28;20135;-85
2022/01/10 00:48:14;;;;;;;7.90;6.45;;;;;;;3.30;81.05;96043.03;5098205;28;20448;-90
2022/01/10 00:50:42;;;;;;;8.65;5.38;;;;;;;3.30;80.84;96048.19;5097380;28;20043;-91
2022/01/10 00:53:10;;;;;;;8.27;5.53;;;;;;;3.29;80.30;96041.38;5097050;28;20055;-83
2022/01/10 00:55:38;;;;;;;9.75;6.55;;;;;;;3.29;79.98;96051.69;5097012;28;20482;-87
2022/01/10 00:58:06;;;;;;;10.00;6.10;;;;;;;3.27;79.73;96053.63;5096163;28;20071;-89
2022/01/10 01:00:34;;;;;;;9.45;5.88;;;;;;;3.19;78.66;96058.72;5097031;28;20059;-87
2022/01/10 01:03:04;;;;;;;9.68;5.85;;;;;;;3.13;79.11;96056.75;5096747;28;20181;-84
2022/01/10 01:05:34;;;;;;;6.85;5.65;;;;;;;3.11;78.98;96057.84;5096916;28;20052;-86
2022/01/10 01:08:06;;;;;;;8.77;5.82;;;;;;;3.07;78.55;96072.78;5096053;28;20105;-88
2022/01/10 01:11:05;;;;;;;10.35;5.78;;;;;;;3.01;78.17;96063.88;5097092;28;20486;-85
2022/01/10 01:13:37;;;;;;;9.75;5.95;;;;;;;3.02;79.21;96069.84;5096746;28;20044;-90
2022/01/10 01:16:18;;;;;;;10.02;6.93;;;;;;;3.08;80.18;96074.38;5096641;28;20056;-85
2022/01/10 01:24:16;;;;;;;7.63;5.97;;;;;;;3.23;80.26;96096.09;5098440;28;20058;-85
2022/01/10 01:26:52;;;;;;;10.98;6.43;;;;;;;3.23;80.18;96097.88;5097383;28;20051;-88
2022/01/10 01:29:26;;;;;;;7.30;6.60;;;;;;;3.24;79.98;96105.47;5096868;28;20059;-89
2022/01/10 01:31:56;;;;;;;11.52;6.53;;;;;;;3.21;80.04;96105.75;5096873;28;20052;-86
2022/01/10 01:34:30;;;;;;;9.18;6.00;;;;;;;3.21;80.34;96099.78;5098010;28;20477;-90
2022/01/10 01:37:00;;;;;;;10.82;6.90;;;;;;;3.23;80.44;96106.41;5096858;28;20164;-85
2022/01/10 01:39:31;;;;;;;7.97;6.47;;;;;;;3.25;80.25;96112.25;5098436;28;20501;-89
2022/01/10 01:42:16;;;;;;;8.77;6.60;;;;;;;3.18;79.05;96111.22;5097587;28;20494;-90
2022/01/10 01:44:49;;;;;;;10.27;6.75;;;;;;;3.06;78.07;96118.38;5099451;28;20108;-87
2022/01/10 01:47:21;;;;;;;9.15;7.35;;;;;;;2.93;78.19;96122.25;5097414;28;20090;-84
2022/01/10 01:49:56;;;;;;;12.30;7.82;;;;;;;2.87;78.91;96129.59;5097265;28;20071;-91
2022/01/10 01:52:27;;;;;;;10.48;7.55;;;;;;;2.84;78.80;96127.34;5097655;28;20052;-87
2022/01/10 01:55:01;;;;;;;11.27;8.13;;;;;;;2.80;78.57;96128.56;5097518;28;20131;-87
2022/01/10 01:57:33;;;;;;;12.25;7.68;;;;;;;2.81;78.60;96129.38;5092625;22;20136;-92
2022/01/10 02:00:19;;;;;;;11.43;7.93;;;;;;;2.82;79.63;96126.66;5077908;28;20052;-90
2022/01/10 02:02:49;;;;;;;10.10;6.75;;;;;;;2.87;79.86;96133.94;5076923;28;20052;-90
2022/01/10 02:05:24;;;;;;;9.38;6.57;;;;;;;2.93;80.29;96132.53;5077736;28;20494;-87
2022/01/10 02:07:57;;;;;;;9.77;7.28;;;;;;;3.01;80.26;96130.84;5076008;28;20139;-84
2022/01/10 02:10:27;;;;;;;11.02;8.38;;;;;;;3.10;80.78;96134.31;5077188;28;20091;-90
2022/01/10 02:13:00;;;;;;;11.15;8.25;;;;;;;3.14;79.83;96138.25;5078174;28;20079;-89
2022/01/10 02:15:46;;;;;;;11.93;9.48;;;;;;;3.12;79.92;96137.56;5077345;28;20418;-86
2022/01/10 02:18:27;;;;;;;11.65;9.82;;;;;;;3.15;81.05;96133.88;5077788;28;20521;-86
2022/01/10 02:21:09;;;;;;;13.23;9.20;;;;;;;3.16;80.26;96154.38;5077839;28;20059;-87
2022/01/10 02:23:48;;;;;;;13.55;9.68;;;;;;;3.17;79.05;96155.16;5077492;28;20072;-86
2022/01/10 02:26:30;;;;;;;13.07;9.70;;;;;;;3.14;78.67;96161.44;5075950;28;20139;-87
2022/01/10 02:29:15;;;;;;;10.70;9.48;;;;;;;3.12;80.14;96167.69;5076763;28;20063;-88
2022/01/10 02:32:00;;;;;;;13.70;9.35;;;;;;;3.14;80.51;96166.59;5077844;28;20571;-88
2022/01/10 02:34:39;;;;;;;16.83;10.68;;;;;;;3.21;80.28;96167.63;5078336;28;20064;-92
2022/01/10 02:37:33;;;;;;;13.57;10.13;;;;;;;3.23;81.90;96170.84;5077701;28;20078;-91
2022/01/10 02:40:24;;;;;;;13.93;10.18;;;;;;;3.27;81.37;96172.19;5077796;28;20062;-92
2022/01/10 02:43:11;;;;;;;15.05;10.27;;;;;;;3.29;81.43;96170.28;5078137;28;20580;-88
2022/01/10 02:45:48;;;;;;;11.88;9.27;;;;;;;3.29;79.92;96179.78;5077202;28;20072;-83
2022/01/10 02:48:18;;;;;;;13.65;9.68;;;;;;;3.27;80.07;96177.34;5078424;28;20072;-91
2022/01/10 02:50:51;;;;;;;12.77;9.32;;;;;;;3.27;80.83;96182.50;5084084;28;20418;-89
2022/01/10 02:53:33;;;;;;;13.57;9.98;;;;;;;3.23;78.66;96186.31;5093523;28;20049;-90
2022/01/10 02:56:20;;;;;;;13.20;9.82;;;;;;;3.19;79.93;96184.19;5095011;28;20096;-88
2022/01/10 02:59:08;;;;;;;12.00;9.65;;;;;;;3.22;80.33;96183.91;5092917;28;20060;-90
2022/01/10 03:01:43;;;;;;;16.38;11.13;;;;;;;3.27;81.53;96189.44;5085790;28;20056;-90
2022/01/10 03:04:18;;;;;;;14.20;10.63;;;;;;;3.29;80.66;96190.91;5083063;28;20064;-91
2022/01/10 03:06:58;;;;;;;17.58;11.25;;;;;;;3.34;81.43;96194.81;5082702;28;20052;-90
2022/01/10 03:09:44;;;;;;;17.60;11.60;;;;;;;3.35;81.31;96193.88;5088542;28;20498;-92
2022/01/10 03:12:21;;;;;;;14.25;10.23;;;;;;;3.36;81.05;96193.69;5093846;28;20121;-91
2022/01/10 03:14:58;;;;;;;13.50;10.65;;;;;;;3.33;80.58;96195.78;5087762;28;20046;-93
2022/01/10 03:17:36;;;;;;;14.20;10.40;;;;;;;3.35;81.07;96199.03;5083363;28;20469;-93
2022/01/10 03:20:25;;;;;;;14.23;11.05;;;;;;;3.34;80.42;96202.53;5084052;28;20526;-92
2022/01/10 03:23:01;;;;;;;13.77;10.20;;;;;;;3.33;79.93;96206.09;5081967;28;20407;-92
2022/01/10 03:25:41;;;;;;;14.60;9.80;;;;;;;3.28;78.34;96209.91;5082949;28;20495;-90
2022/01/10 03:28:17;;;;;;;14.77;10.93;;;;;;;3.23;79.54;96206.94;5082496;28;20573;-89
2022/01/10 03:31:01;;;;;;;15.70;10.65;;;;;;;3.22;79.66;96215.66;5082654;28;20052;-89
2022/01/10 03:33:36;;;;;;;14.27;10.70;;;;;;;3.21;79.89;96226.09;5079973;28;20079;-89
2022/01/10 03:36:12;;;;;;;13.23;10.65;;;;;;;3.21;80.35;96218.34;5079450;28;20242;-90
2022/01/10 03:38:46;;;;;;;17.55;10.80;;;;;;;3.25;79.57;96230.81;5079531;28;20456;-91
2022/01/10 03:41:21;;;;;;;14.95;10.38;;;;;;;3.24;79.55;96231.78;5079789;28;20108;-90
2022/01/10 03:44:07;;;;;;;15.60;11.40;;;;;;;3.25;79.83;96235.97;5080126;28;20059;-91
2022/01/10 03:46:45;;;;;;;16.25;11.40;;;;;;;3.27;81.14;96241.78;5080026;28;20108;-86
2022/01/10 03:49:28;;;;;;;14.40;11.82;;;;;;;3.28;80.19;96246.00;5079755;28;20627;-87
2022/01/10 03:52:04;;;;;;;13.30;10.80;;;;;;;3.26;79.73;96250.50;5079028;28;20135;-91
2022/01/10 03:57:39;;;;;;;17.23;10.55;;;;;;;3.18;78.86;96263.28;5077718;28;20052;-90
2022/01/10 04:00:16;;;;;;;15.40;11.55;;;;;;;3.14;79.18;96269.66;5078791;28;20502;-90
2022/01/10 04:03:03;;;;;;;14.65;10.45;;;;;;;3.09;78.62;96272.69;5078815;28;20048;-86
2022/01/10 04:05:51;;;;;;;15.25;10.88;;;;;;;3.09;79.41;96279.63;5078632;28;20072;-90
2022/01/10 04:08:32;;;;;;;14.10;10.63;;;;;;;3.12;80.02;96281.88;5077561;28;20215;-91
2022/01/10 04:11:09;;;;;;;18.20;12.32;;;;;;;3.16;79.85;96288.38;5077937;28;20060;-90
2022/01/10 04:13:52;;;;;;;13.55;11.02;;;;;;;3.20;80.85;96292.31;5077966;28;20097;-91
2022/01/10 04:16:28;;;;;;;16.15;12.27;;;;;;;3.24;81.02;96296.22;5079756;28;20132;-92
2022/01/10 04:19:02;;;;;;;15.63;11.80;;;;;;;3.28;80.90;96297.56;5079715;28;20056;-90
2022/01/10 04:21:33;;;;;;;14.27;11.63;;;;;;;3.32;80.75;96307.56;5080140;28;20075;-92
2022/01/10 04:24:04;;;;;;;15.63;11.80;;;;;;;3.30;80.35;96308.53;5079410;28;20055;-92
2022/01/10 04:26:43;;;;;;;15.77;10.90;;;;;;;3.32;80.17;96308.38;5080322;28;20453;-93
2022/01/10 04:29:16;;;;;;;14.82;11.13;;;;;;;3.34;80.91;96311.63;5079610;28;20059;-92
2022/01/10 04:31:52;;;;;;;15.52;12.43;;;;;;;3.35;80.81;96321.00;5079099;28;20060;-91
2022/01/10 04:34:23;;;;;;;16.90;11.57;;;;;;;3.36;80.23;96321.81;5079500;28;20048;-91
2022/01/10 04:36:58;;;;;;;17.42;12.00;;;;;;;3.32;79.49;96323.84;5078832;28;20047;-91
2022/01/10 04:39:30;;;;;;;15.45;11.73;;;;;;;3.25;78.40;96322.81;5078673;28;20063;-92
2022/01/10 04:42:00;;;;;;;17.05;12.80;;;;;;;3.20;79.25;96327.59;5079612;28;20048;-91
2022/01/10 04:44:37;;;;;;;15.88;11.45;;;;;;;3.21;80.80;96324.84;5079277;28;20059;-93
2022/01/10 04:47:15;;;;;;;15.55;12.25;;;;;;;3.29;80.96;96330.09;5078885;28;20045;-89
2022/01/10 04:53:05;;;;;;;13.63;11.45;;;;;;;3.35;81.01;96344.19;5074482;28;20048;-86
2022/01/10 04:55:40;;;;;;;15.75;11.35;;;;;;;3.37;80.65;96346.63;5077304;28;20044;-90
2022/01/10 05:01:13;;;;;;;17.23;12.65;;;;;;;3.41;81.29;96358.28;5076448;28;20056;-84
2022/01/10 05:03:48;;;;;;;15.20;11.65;;;;;;;3.44;81.37;96365.75;5079194;28;20059;-90
2022/01/10 05:06:25;;;;;;;16.38;12.70;;;;;;;3.45;81.45;96368.16;5077950;28;20059;-89
2022/01/10 05:09:00;;;;;;;15.35;11.88;;;;;;;3.45;81.05;96372.50;5078085;28;20060;-91
2022/01/10 05:11:39;;;;;;;17.58;12.80;;;;;;;3.44;80.79;96369.13;5076796;28;20068;-92
2022/01/10 05:14:13;;;;;;;15.02;11.68;;;;;;;3.47;81.20;96373.19;5077758;28;20055;-84
2022/01/10 05:16:57;;;;;;;16.77;13.00;;;;;;;3.47;81.18;96383.50;5076824;28;20067;-89
2022/01/10 05:19:34;;;;;;;20.83;13.02;;;;;;;3.42;79.38;96380.53;5077446;28;20048;-88
2022/01/10 05:22:12;;;;;;;17.65;12.05;;;;;;;3.34;79.34;96383.00;5078274;28;20050;-88
2022/01/10 05:24:45;;;;;;;19.35;12.45;;;;;;;3.27;79.22;96383.56;5077590;28;20387;-87
2022/01/10 05:27:15;;;;;;;17.33;12.38;;;;;;;3.25;79.38;96394.97;5076726;28;20049;-85
2022/01/10 05:29:45;;;;;;;19.83;12.30;;;;;;;3.23;78.99;96392.53;5077571;28;20527;-90
2022/01/10 05:32:20;;;;;;;19.38;12.60;;;;;;;3.20;78.53;96397.97;5077531;28;20480;-89
2022/01/10 05:34:54;;;;;;;16.25;12.50;;;;;;;3.17;78.92;96403.44;5076056;28;20501;-86
2022/01/10 05:37:27;;;;;;;18.02;12.30;;;;;;;3.14;78.79;96405.47;5076142;28;20058;-89
2022/01/10 05:39:56;;;;;;;15.98;12.35;;;;;;;3.10;79.09;96410.06;5076886;28;20048;-88
2022/01/10 05:42:29;;;;;;;18.77;13.02;;;;;;;3.08;78.74;96414.56;5079090;28;20052;-87
2022/01/10 05:44:57;;;;;;;19.80;12.68;;;;;;;3.03;78.67;96414.97;5079092;28;20062;-87
2022/01/10 05:47:26;;;;;;;21.30;13.15;;;;;;;3.03;78.74;96422.72;5078282;28;20075;-81
2022/01/10 05:50:00;;;;;;;17.38;12.23;;;;;;;3.05;79.85;96420.81;5077672;28;20048;-86
2022/01/10 05:52:29;;;;;;;29.67;17.23;;;;;;;3.10;79.79;96422.97;5076591;28;20048;-86
2022/01/10 05:54:57;;;;;;;40.03;22.98;;;;;;;3.11;79.32;96424.59;5064871;28;20052;-86
2022/01/10 05:57:25;;;;;;;22.92;14.30;;;;;;;3.11;78.99;96436.69;5058012;28;20491;-81
2022/01/10 05:59:53;;;;;;;20.42;13.10;;;;;;;3.07;78.60;96442.09;5076270;28;20052;-81
2022/01/10 06:02:20;;;;;;;17.13;12.43;;;;;;;3.01;78.86;96450.38;5079236;28;20059;-80
2022/01/10 06:04:50;;;;;;;16.90;11.82;;;;;;;2.97;78.59;96446.44;5078630;28;20045;-86
2022/01/10 06:07:20;;;;;;;18.42;12.75;;;;;;;2.98;79.41;96453.25;5071393;28;20409;-85
2022/01/10 06:09:49;;;;;;;18.23;12.45;;;;;;;3.03;79.33;96457.97;5060004;28;20110;-83
2022/01/10 06:12:16;;;;;;;19.15;13.57;;;;;;;3.04;79.01;96449.28;5059200;28;20116;-80
2022/01/10 06:14:44;;;;;;;16.27;12.63;;;;;;;3.05;78.99;96456.06;5058940;28;20116;-82
2022/01/10 06:17:18;;;;;;;16.83;12.38;;;;;;;3.06;79.39;96465.41;5063802;28;20044;-87
2022/01/10 06:19:45;;;;;;;16.38;12.45;;;;;;;3.09;79.54;96468.53;5068041;28;20054;-86
2022/01/10 06:22:15;;;;;;;16.73;12.00;;;;;;;3.12;79.88;96474.38;5074337;28;20105;-82
2022/01/10 06:24:43;;;;;;;18.40;13.23;;;;;;;3.14;79.31;96482.78;5064793;28;20049;-80
2022/01/10 06:27:10;;;;;;;20.80;13.95;;;;;;;3.13;78.77;96487.13;5062873;28;20056;-82
2022/01/10 06:29:38;;;;;;;19.02;13.57;;;;;;;3.13;78.88;96489.72;5069386;28;20048;-84
2022/01/10 06:32:06;;;;;;;19.40;13.15;;;;;;;3.15;79.68;96498.13;5080655;28;20053;-88
2022/01/10 06:34:34;;;;;;;18.63;12.93;;;;;;;3.16;79.45;96496.34;5081978;28;20116;-80
2022/01/10 06:37:02;;;;;;;21.20;13.13;;;;;;;3.12;78.30;96503.53;5063273;28;20056;-83
2022/01/10 06:39:32;;;;;;;18.95;12.95;;;;;;;3.07;78.13;96510.88;5063352;28;20049;-84
2022/01/10 06:42:00;;;;;;;18.45;12.77;;;;;;;3.08;79.51;96517.63;5062040;28;20052;-87
2022/01/10 06:44:27;;;;;;;17.33;12.70;;;;;;;3.13;80.39;96515.47;5072515;28;20516;-84
2022/01/10 06:46:56;;;;;;;21.17;14.50;;;;;;;3.19;80.53;96520.09;5082481;28;20053;-85
2022/01/10 06:49:24;;;;;;;21.30;13.90;;;;;;;3.23;80.21;96526.56;5082298;28;20052;-80
2022/01/10 06:51:51;;;;;;;17.77;13.18;;;;;;;3.22;79.45;96527.53;5082000;28;20044;-81
2022/01/10 06:54:19;;;;;;;22.42;13.50;;;;;;;3.16;78.28;96543.56;5082913;28;20044;-85
2022/01/10 06:56:51;;;;;;;20.85;14.75;;;;;;;3.11;79.38;96543.16;5071581;28;20060;-82
2022/01/10 06:59:19;;;;;;;18.83;13.43;;;;;;;3.15;80.33;96544.50;5062361;28;20056;-82
2022/01/10 07:01:47;;;;;;;20.88;13.20;;;;;;;3.21;80.64;96553.44;5062303;28;20060;-77
2022/01/10 07:04:14;;;;;;;17.83;13.30;;;;;;;3.23;80.50;96564.44;5056680;28;20513;-77
2022/01/10 07:06:42;;;;;;;17.83;12.90;;;;;;;3.25;81.04;96560.78;5064463;28;20422;-79
2022/01/10 07:09:09;;;;;;;23.70;16.05;;;;;;;3.29;81.18;96569.06;5076440;28;20056;-76
2022/01/10 07:11:37;;;;;;;21.00;14.93;;;;;;;3.33;81.36;96585.06;5073625;28;20056;-77
2022/01/10 07:14:07;;;;;;;21.83;14.73;;;;;;;3.32;81.32;96584.22;5055973;28;20049;-76
2022/01/10 07:16:35;;;;;;;18.30;14.18;;;;;;;3.33;81.42;96592.81;5055541;28;20053;-76
2022/01/10 07:19:03;;;;;;;18.13;12.90;;;;;;;3.35;81.99;96598.66;5064564;28;20052;-77
2022/01/10 07:21:30;;;;;;;22.88;13.75;;;;;;;3.35;81.59;96606.38;5066113;28;20049;-76
2022/01/10 07:23:58;;;;;;;20.30;14.05;;;;;;;3.35;81.42;96604.59;5056028;28;20586;-78
2022/01/10 07:26:27;;;;;;;19.40;13.98;;;;;;;3.35;81.41;96616.69;5056183;28;20053;-78
2022/01/10 07:28:55;;;;;;;17.13;12.75;;;;;;;3.35;81.70;96622.66;5059250;28;20056;-80
2022/01/10 07:31:24;;;;;;;19.95;13.13;;;;;;;3.35;81.80;96627.81;5065321;28;20417;-77
2022/01/10 07:33:52;;;;;;;19.30;13.35;;;;;;;3.35;81.84;96627.00;5075338;28;20429;-77
2022/01/10 07:36:19;;;;;;;17.42;13.40;;;;;;;3.35;81.69;96639.91;5075634;28;20049;-76
2022/01/10 07:38:47;;;;;;;20.70;13.35;;;;;;;3.35;82.01;96638.13;5075354;28;20048;-76
2022/01/10 07:41:14;;;;;;;21.00;13.25;;;;;;;3.34;81.56;96654.53;5063896;28;20049;-75
2022/01/10 07:43:42;;;;;;;19.48;12.73;;;;;;;3.35;81.55;96658.75;5063163;28;20049;-76
2022/01/10 07:46:11;;;;;;;23.05;14.85;;;;;;;3.35;81.50;96663.91;5075544;28;20083;-76
2022/01/10 07:48:44;;;;;;;18.15;12.18;;;;;;;3.32;81.50;96660.78;5076788;28;20052;-75
2022/01/10 07:51:13;;;;;;;19.92;11.68;;;;;;;3.29;81.50;96665.25;5076871;28;20054;-76
2022/01/10 07:53:41;;;;;;;18.75;11.93;;;;;;;3.31;82.05;96667.69;5077326;28;20540;-78
2022/01/10 07:56:10;;;;;;;21.60;11.65;;;;;;;3.30;81.93;96677.22;5068797;28;20051;-78
2022/01/10 07:58:38;;;;;;;18.33;11.20;;;;;;;3.30;82.10;96676.38;5056299;28;20045;-75
2022/01/10 08:01:08;;;;;;;18.25;11.18;;;;;;;3.30;81.90;96684.09;5056902;28;20137;-81
2022/01/10 08:03:36;;;;;;;22.65;12.52;;;;;;;3.32;81.88;96689.13;5073868;28;20055;-79
2022/01/10 08:06:05;;;;;;;24.60;12.85;;;;;;;3.29;82.16;96696.19;5076236;28;20049;-77
2022/01/10 08:08:33;;;;;;;21.83;12.20;;;;;;;3.31;82.10;96698.63;5068735;28;20431;-78
2022/01/10 08:11:01;;;;;;;20.77;12.10;;;;;;;3.29;82.28;96696.19;5056630;28;20053;-78
2022/01/10 08:13:28;;;;;;;24.25;12.32;;;;;;;3.30;82.04;96700.41;5063322;28;20045;-80
2022/01/10 08:15:56;;;;;;;22.50;12.52;;;;;;;3.30;82.13;96707.31;5056243;28;20530;-78
2022/01/10 08:18:23;;;;;;;24.95;11.32;;;;;;;3.30;82.28;96707.31;5055737;28;20461;-77
2022/01/10 08:20:51;;;;;;;19.73;11.18;;;;;;;3.24;82.38;96706.09;5062786;28;20053;-77
2022/01/10 08:23:20;;;;;;;19.65;12.40;;;;;;;3.24;82.52;96713.81;5075289;28;20055;-78
2022/01/10 08:25:47;;;;;;;24.20;12.88;;;;;;;3.23;82.69;96722.50;5074660;28;20126;-77
2022/01/10 08:28:15;;;;;;;20.88;11.50;;;;;;;3.24;82.55;96729.31;5075283;28;20460;-79
2022/01/10 08:30:42;;;;;;;26.45;12.10;;;;;;;3.22;81.99;96731.19;5074786;28;20399;-77
2022/01/10 08:33:10;;;;;;;20.55;11.38;;;;;;;3.21;82.06;96737.28;5067347;28;20064;-76
2022/01/10 08:35:37;;;;;;;21.13;13.25;;;;;;;3.20;82.16;96734.84;5054557;28;20049;-77
2022/01/10 08:38:05;;;;;;;18.63;11.75;;;;;;;3.19;81.22;96751.25;5055611;28;20056;-80
2022/01/10 08:40:34;;;;;;;18.80;11.23;;;;;;;3.17;81.69;96751.41;5055709;28;20049;-79
2022/01/10 08:43:06;;;;;;;17.25;10.65;;;;;;;3.20;82.39;96751.13;5056053;28;20462;-78
2022/01/10 08:45:34;;;;;;;20.02;11.95;;;;;;;3.21;82.38;96755.31;5069173;28;20045;-78
2022/01/10 08:48:01;;;;;;;17.65;11.15;;;;;;;3.24;82.51;96759.44;5074473;28;20044;-77
2022/01/10 08:50:29;;;;;;;17.83;10.90;;;;;;;3.22;81.79;96761.31;5074351;28;20053;-77
2022/01/10 08:52:57;;;;;;;20.55;12.80;;;;;;;3.21;81.99;96769.97;5074687;28;20045;-78
2022/01/10 08:55:24;;;;;;;21.35;12.15;;;;;;;3.20;82.24;96769.19;5074027;28;20547;-78
2022/01/10 08:57:53;;;;;;;20.70;13.00;;;;;;;3.22;82.55;96769.88;5066976;28;20045;-77
2022/01/10 09:00:21;;;;;;;20.25;12.45;;;;;;;3.24;82.32;96775.69;5054186;28;20059;-78
2022/01/10 09:02:48;;;;;;;17.27;10.80;;;;;;;3.26;82.91;96784.13;5054431;28;20053;-78
2022/01/10 09:05:16;;;;;;;16.60;10.73;;;;;;;3.26;81.98;96778.97;5056411;28;20052;-77
2022/01/10 09:07:43;;;;;;;17.80;11.68;;;;;;;3.21;80.87;96783.69;5057182;28;20412;-79
2022/01/10 09:10:11;;;;;;;18.73;12.02;;;;;;;3.13;80.75;96787.84;5060405;28;20059;-79
2022/01/10 09:12:39;;;;;;;18.77;11.10;;;;;;;3.13;81.42;96793.84;5062099;28;20094;-79
2022/01/10 09:15:09;;;;;;;15.82;10.88;;;;;;;3.13;81.61;96800.75;5054148;28;20103;-77
2022/01/10 09:17:37;;;;;;;16.27;10.80;;;;;;;3.12;80.74;96802.50;5053901;28;20056;-77
2022/01/10 09:20:06;;;;;;;15.95;10.55;;;;;;;3.14;81.61;96810.94;5053712;28;20053;-76
2022/01/10 09:22:33;;;;;;;17.98;11.90;;;;;;;3.21;82.46;96811.22;5059767;28;20045;-77
2022/01/10 09:25:01;;;;;;;15.40;11.02;;;;;;;3.26;82.18;96815.06;5072392;28;20048;-77
2022/01/10 09:27:28;;;;;;;14.27;10.02;;;;;;;3.29;82.34;96822.53;5073868;28;20051;-78
2022/01/10 09:30:03;;;;;;;15.10;10.05;;;;;;;3.33;82.39;96824.84;5074447;28;20040;-76
2022/01/10 09:32:32;;;;;;;14.10;9.35;;;;;;;3.35;82.74;96830.69;5053292;28;20066;-77
2022/01/10 09:34:59;;;;;;;13.73;8.75;;;;;;;3.38;82.09;96838.16;5053561;28;20060;-77
2022/01/10 09:37:27;;;;;;;12.82;8.57;;;;;;;3.35;81.03;96838.44;5065620;28;20055;-82
2022/01/10 09:39:59;;;;;;;13.98;8.35;;;;;;;3.27;81.08;96842.47;5077589;28;20048;-83
2022/01/10 09:42:27;;;;;;;13.55;8.93;;;;;;;3.28;81.56;96836.38;5077244;28;20075;-80
2022/01/10 09:44:56;;;;;;;17.83;9.65;;;;;;;3.30;80.83;96847.38;5067277;28;20053;-79
2022/01/10 09:47:23;;;;;;;13.27;8.98;;;;;;;3.28;81.37;96846.69;5062279;28;20055;-82
2022/01/10 09:49:52;;;;;;;16.27;10.52;;;;;;;3.29;81.53;96855.22;5077212;28;20055;-83
2022/01/10 09:52:20;;;;;;;20.65;12.32;;;;;;;3.32;81.74;96860.13;5084266;28;20044;-85
2022/01/10 09:54:50;;;;;;;19.70;10.70;;;;;;;3.29;80.52;96863.78;5066224;28;20059;-89
2022/01/10 09:57:18;;;;;;;17.52;10.35;;;;;;;3.26;80.69;96865.81;5061317;28;20059;-88
2022/01/10 09:59:48;;;;;;;16.92;11.85;;;;;;;3.26;81.34;96869.19;5074164;28;20045;-86
2022/01/10 10:02:20;;;;;;;20.67;11.48;;;;;;;3.30;81.82;96867.16;5080627;28;20056;-85
2022/01/10 10:04:54;;;;;;;21.23;12.98;;;;;;;3.32;82.25;96869.63;5086541;28;20127;-84
2022/01/10 10:07:24;;;;;;;20.67;11.10;;;;;;;3.36;81.92;96878.72;5085257;28;20059;-83
2022/01/10 10:09:57;;;;;;;21.88;11.55;;;;;;;3.35;81.36;96884.84;5080340;28;20040;-85
2022/01/10 10:12:29;;;;;;;16.13;9.35;;;;;;;3.32;80.53;96885.09;5089024;28;20055;-85
2022/01/10 10:14:57;;;;;;;18.90;10.88;;;;;;;3.32;81.72;96885.09;5062813;28;20048;-87
2022/01/10 10:17:24;;;;;;;23.33;12.90;;;;;;;3.36;81.90;96886.47;5057660;28;20045;-85
2022/01/10 10:19:53;;;;;;;23.65;13.63;;;;;;;3.35;81.52;96890.00;5056222;28;20041;-88
2022/01/10 10:22:24;;;;;;;21.73;12.88;;;;;;;3.38;82.37;96890.53;5064183;28;20056;-88
2022/01/10 10:24:51;;;;;;;22.80;13.18;;;;;;;3.43;82.16;96893.56;5074152;28;20041;-88
2022/01/10 10:27:22;;;;;;;25.05;13.57;;;;;;;3.45;81.85;96896.81;5066585;28;20643;-91
2022/01/10 10:30:13;;;;;;;22.05;12.93;;;;;;;3.44;81.44;96899.53;5058501;28;20114;-87
2022/01/10 10:32:41;;;;;;;23.30;12.80;;;;;;;3.44;81.74;96907.28;5060152;28;20049;-86
2022/01/10 10:35:12;;;;;;;22.50;13.50;;;;;;;3.47;81.95;96909.59;5058680;28;20542;-88
2022/01/10 10:37:42;;;;;;;28.70;13.95;;;;;;;3.47;82.03;96914.75;5070914;28;20418;-83
2022/01/10 10:40:12;;;;;;;22.92;13.40;;;;;;;3.49;82.28;96915.44;5077589;28;20068;-86
2022/01/10 10:42:40;;;;;;;28.08;14.25;;;;;;;3.49;81.92;96912.84;5078682;28;20052;-87
2022/01/10 10:45:10;;;;;;;30.55;15.23;;;;;;;3.49;82.52;96923.16;5077647;28;20056;-91
2022/01/10 10:47:40;;;;;;;29.45;14.52;;;;;;;3.52;82.96;96917.75;5079182;28;20048;-87
2022/01/10 10:50:10;;;;;;;27.08;14.45;;;;;;;3.51;82.47;96926.44;5064231;28;20060;-87
2022/01/10 10:52:41;;;;;;;29.15;14.50;;;;;;;3.50;81.79;96927.41;5056803;28;20049;-88
2022/01/10 10:55:11;;;;;;;22.33;13.15;;;;;;;3.47;81.60;96925.88;5054861;28;20053;-85
2022/01/10 10:57:39;;;;;;;21.58;12.95;;;;;;;3.47;82.10;96930.22;5054701;28;20056;-84
2022/01/10 11:00:10;;;;;;;25.25;13.95;;;;;;;3.44;80.37;96933.06;5055729;28;20052;-84
2022/01/10 11:02:37;;;;;;;23.88;14.35;;;;;;;3.40;81.41;96934.25;5070647;28;20417;-83
2022/01/10 11:05:07;;;;;;;22.33;12.50;;;;;;;3.37;80.70;96942.22;5064173;28;20041;-81
2022/01/10 11:07:36;;;;;;;20.88;12.10;;;;;;;3.26;79.68;96945.75;5057446;28;20505;-87
2022/01/10 11:10:16;;;;;;;23.58;13.32;;;;;;;3.20;81.17;96947.06;5059675;28;20118;-83
2022/01/10 11:12:51;;;;;;;21.80;12.43;;;;;;;3.22;82.89;96952.09;5077791;28;20509;-81
2022/01/10 11:15:19;;;;;;;21.00;13.10;;;;;;;3.25;82.05;96952.63;5074220;28;20392;-87
2022/01/10 11:17:47;;;;;;;20.33;12.35;;;;;;;3.28;82.51;96957.56;5064101;28;20133;-89
2022/01/10 11:20:17;;;;;;;26.98;12.27;;;;;;;3.25;80.65;96957.78;5064060;28;20049;-88
2022/01/10 11:22:47;;;;;;;22.98;13.27;;;;;;;3.24;81.33;96971.63;5061527;28;20084;-88
2022/01/10 11:25:25;;;;;;;23.85;13.07;;;;;;;3.29;82.54;96974.63;5059064;28;20055;-87
2022/01/10 11:27:55;;;;;;;21.77;11.98;;;;;;;3.30;80.73;96971.13;5075748;28;20052;-90
2022/01/10 11:30:29;;;;;;;24.17;13.57;;;;;;;3.29;82.04;96977.22;5078292;28;20516;-87
2022/01/10 11:33:02;;;;;;;22.42;12.93;;;;;;;3.32;81.94;96980.50;5079511;28;20133;-89
2022/01/10 11:35:53;;;;;;;20.30;13.25;;;;;;;3.36;82.24;96979.28;5081277;28;20052;-87
2022/01/10 11:38:29;;;;;;;22.65;13.75;;;;;;;3.37;82.25;96976.59;5080412;28;20052;-86
2022/01/10 11:41:03;;;;;;;24.60;13.65;;;;;;;3.37;80.38;96976.59;5060715;28;20463;-89
2022/01/10 11:43:43;;;;;;;20.88;12.27;;;;;;;3.38;79.83;96982.56;5061302;28;20064;-89
2022/01/10 11:46:19;;;;;;;19.27;11.15;;;;;;;3.36;79.10;96989.59;5079571;28;20052;-87
2022/01/10 11:48:50;;;;;;;18.83;11.90;;;;;;;3.32;79.37;96990.81;5079973;28;20052;-91
2022/01/10 11:51:20;;;;;;;21.77;12.48;;;;;;;3.34;79.67;97000.03;5072208;28;20049;-88
2022/01/10 11:53:51;;;;;;;19.13;12.43;;;;;;;3.32;78.87;96998.53;5075628;28;20056;-79
2022/01/10 11:56:26;;;;;;;21.77;12.00;;;;;;;3.26;78.20;97000.69;5080516;28;20502;-79
2022/01/10 11:59:11;;;;;;;24.65;12.32;;;;;;;3.24;78.66;96997.41;5079750;28;20052;-80
2022/01/10 12:01:41;;;;;;;24.30;13.18;;;;;;;3.24;78.39;97007.72;5079222;28;20048;-79
2022/01/10 12:04:09;;;;;;;32.28;16.65;;;;;;;3.20;78.00;97001.19;5070128;28;20049;-79
2022/01/10 12:06:37;;;;;;;26.60;14.65;;;;;;;3.17;78.03;97011.75;5068153;28;20131;-78